createdAt,value
2019-06-01T09:15:17.391Z,22.13
2019-06-01T09:17:46.094Z,14.60
2019-06-01T09:20:15.235Z,14.70
2019-06-01T09:22:47.840Z,15.53
2019-06-01T09:25:14.504Z,11.63
2019-06-01T09:27:43.153Z,11.20
2019-06-01T09:30:11.851Z,14.00
2019-06-01T09:32:40.509Z,11.93
2019-06-01T09:35:09.533Z,9.60
2019-06-01T09:37:38.134Z,12.87
2019-06-01T09:40:07.550Z,13.17
2019-06-01T09:42:37.525Z,20.10
2019-06-01T09:45:07.778Z,21.43
2019-06-01T09:47:37.684Z,12.83
2019-06-01T09:50:07.395Z,21.67
2019-06-01T09:52:36.019Z,12.57
2019-06-01T09:55:06.162Z,9.43
2019-06-01T09:57:36.395Z,11.00
2019-06-01T10:00:09.910Z,11.93
2019-06-01T10:02:38.596Z,9.80
2019-06-01T10:05:07.274Z,11.60
2019-06-01T10:07:37.006Z,8.70
2019-06-01T10:10:07.735Z,9.57
2019-06-01T10:12:36.417Z,8.77
2019-06-01T10:15:06.797Z,11.00
2019-06-01T10:17:37.058Z,14.00
2019-06-01T10:20:07.530Z,8.60
2019-06-01T10:22:37.197Z,7.20
2019-06-01T10:25:07.403Z,8.53
2019-06-01T10:27:36.720Z,7.17
2019-06-01T10:30:09.166Z,14.40
2019-06-01T10:32:38.164Z,7.80
2019-06-01T10:35:07.718Z,8.63
2019-06-01T10:37:37.623Z,12.70
2019-06-01T10:40:07.922Z,11.50
2019-06-01T10:42:37.913Z,6.93
2019-06-01T10:45:08.050Z,8.10
2019-06-01T10:47:38.038Z,8.57
2019-06-01T10:50:07.635Z,7.83
2019-06-01T10:52:36.366Z,7.30
2019-06-01T10:55:06.680Z,9.10
2019-06-01T10:57:36.613Z,6.33
2019-06-01T11:00:13.043Z,9.17
2019-06-01T11:02:43.108Z,6.87
2019-06-01T11:05:12.279Z,5.80
2019-06-01T11:07:41.091Z,4.70
2019-06-01T11:10:10.330Z,7.10
2019-06-01T11:12:39.286Z,6.80
2019-06-01T11:15:09.461Z,5.50
2019-06-01T11:17:39.238Z,6.60
2019-06-01T11:20:08.490Z,6.53
2019-06-01T11:22:37.543Z,7.57
2019-06-01T11:25:06.586Z,6.23
2019-06-01T11:27:35.699Z,9.40
2019-06-01T11:30:08.620Z,6.93
2019-06-01T11:32:39.496Z,11.80
2019-06-01T11:35:07.667Z,5.93
2019-06-01T11:37:36.270Z,7.77
2019-06-01T11:40:06.966Z,4.50
2019-06-01T11:42:36.885Z,9.03
2019-06-01T11:45:07.582Z,7.13
2019-06-01T11:47:36.803Z,6.10
2019-06-01T11:50:07.460Z,5.43
2019-06-01T11:52:37.027Z,4.07
2019-06-01T11:55:08.601Z,6.60
2019-06-01T11:57:37.519Z,6.43
2019-06-01T12:00:13.339Z,4.93
2019-06-01T12:02:42.013Z,4.40
2019-06-01T12:05:11.316Z,4.17
2019-06-01T12:07:40.058Z,4.00
2019-06-01T12:10:09.287Z,5.00
2019-06-01T12:12:38.324Z,4.60
2019-06-01T12:15:08.876Z,3.80
2019-06-01T12:17:38.715Z,8.67
2019-06-01T12:20:08.389Z,3.40
2019-06-01T12:22:36.948Z,4.10
2019-06-01T12:25:06.680Z,4.50
2019-06-01T12:27:35.419Z,7.20
2019-06-01T12:30:06.340Z,4.20
2019-06-01T12:32:34.944Z,4.83
2019-06-01T12:35:04.767Z,3.60
2019-06-01T12:37:52.404Z,6.43
2019-06-01T12:40:22.681Z,3.87
2019-06-01T12:43:10.248Z,4.50
2019-06-01T12:46:07.397Z,4.93
2019-06-01T12:48:47.067Z,3.93
2019-06-01T12:51:35.170Z,3.70
2019-06-01T12:54:22.840Z,5.10
2019-06-01T12:57:10.495Z,4.50
2019-06-01T12:59:58.062Z,4.80
2019-06-01T13:02:55.292Z,4.37
2019-06-01T13:05:35.075Z,9.80
2019-06-01T13:08:22.732Z,3.90
2019-06-01T13:11:10.331Z,6.40
2019-06-01T13:13:57.983Z,9.57
2019-06-01T13:16:50.798Z,10.13
2019-06-01T13:19:34.852Z,4.03
2019-06-01T13:22:22.495Z,4.00
2019-06-01T13:25:10.030Z,11.10
2019-06-01T13:27:57.490Z,5.40
2019-06-01T13:30:46.030Z,6.57
2019-06-01T13:33:34.323Z,3.17
2019-06-01T13:36:22.506Z,8.10
2019-06-01T13:39:10.160Z,4.17
2019-06-01T13:41:57.695Z,4.30
2019-06-01T13:44:45.502Z,4.87
2019-06-01T13:47:33.248Z,2.90
2019-06-01T13:50:20.817Z,5.97
2019-06-01T13:53:08.397Z,7.03
2019-06-01T13:55:55.907Z,6.57
2019-06-01T13:58:44.235Z,4.77
2019-06-01T14:01:31.996Z,6.47
2019-06-01T14:04:19.577Z,4.53
2019-06-01T14:07:07.195Z,3.07
2019-06-01T14:09:55.392Z,2.70
2019-06-01T14:12:43.122Z,3.27
2019-06-01T14:15:30.707Z,2.77
2019-06-01T14:18:18.289Z,6.93
2019-06-01T14:21:05.856Z,2.67
2019-06-01T14:23:54.069Z,3.03
2019-06-01T14:26:41.865Z,3.17
2019-06-01T14:29:29.431Z,4.87
2019-06-01T14:32:17.023Z,2.20
2019-06-01T14:35:08.873Z,2.70
2019-06-01T14:37:57.004Z,3.50
2019-06-01T14:40:44.988Z,2.40
2019-06-01T14:43:32.656Z,3.27
2019-06-01T14:46:20.180Z,2.00
2019-06-01T14:49:07.764Z,3.63
2019-06-01T14:51:55.784Z,4.70
2019-06-01T14:54:43.592Z,3.70
2019-06-01T14:57:31.159Z,3.43
2019-06-01T15:00:19.373Z,2.30
2019-06-01T15:03:06.954Z,3.00
2019-06-01T15:05:54.510Z,2.60
2019-06-01T15:08:42.123Z,5.53
2019-06-01T15:11:29.749Z,6.57
2019-06-01T15:14:17.383Z,1.87
2019-06-01T15:17:05.072Z,4.57
2019-06-01T15:19:53.882Z,4.30
2019-06-01T15:22:41.657Z,4.93
2019-06-01T15:25:29.356Z,3.03
2019-06-01T15:28:16.968Z,2.70
2019-06-01T15:31:04.638Z,6.93
2019-06-01T15:33:53.206Z,3.87
2019-06-01T15:36:41.031Z,2.20
2019-06-01T15:39:28.617Z,5.10
2019-06-01T15:42:16.171Z,5.53
2019-06-01T15:45:05.340Z,2.80
2019-06-01T15:47:53.305Z,2.20
2019-06-01T15:50:41.089Z,5.17
2019-06-01T15:53:28.680Z,2.73
2019-06-01T15:56:16.246Z,2.03
2019-06-01T15:59:04.477Z,5.27
2019-06-01T16:01:52.992Z,3.27
2019-06-01T16:04:40.786Z,12.83
2019-06-01T16:07:28.319Z,3.70
2019-06-01T16:10:16.202Z,2.60
2019-06-01T16:13:04.535Z,3.67
2019-06-01T16:15:53.316Z,3.90
2019-06-01T16:18:40.973Z,2.50
2019-06-01T16:21:28.578Z,4.37
2019-06-01T16:24:16.154Z,3.37
2019-06-01T16:27:04.704Z,3.80
2019-06-01T16:29:52.436Z,2.07
2019-06-01T16:32:40.066Z,2.83
2019-06-01T16:35:27.732Z,1.70
2019-06-01T16:38:15.320Z,5.60
2019-06-01T16:41:03.411Z,2.77
2019-06-01T16:43:51.211Z,1.97
2019-06-01T16:46:38.799Z,5.10
2019-06-01T16:49:27.279Z,4.30
2019-06-01T16:52:15.227Z,2.40
2019-06-01T16:55:04.768Z,3.40
2019-06-01T16:57:52.163Z,2.40
2019-06-01T17:00:39.821Z,6.50
2019-06-01T17:03:27.411Z,2.20
2019-06-01T17:06:15.099Z,5.33
2019-06-01T17:09:05.193Z,2.60
2019-06-01T17:11:53.059Z,2.23
2019-06-01T17:14:40.666Z,2.33
2019-06-01T17:17:28.236Z,4.27
2019-06-01T17:20:35.623Z,3.37
2019-06-01T17:23:27.432Z,2.53
2019-06-01T17:26:12.507Z,4.80
2019-06-01T17:29:00.177Z,2.23
2019-06-01T17:31:54.298Z,2.90
2019-06-01T17:34:37.013Z,3.03
2019-06-01T17:37:24.642Z,2.70
2019-06-01T17:40:12.512Z,2.40
2019-06-01T17:43:01.276Z,4.20
2019-06-01T17:45:49.280Z,3.47
2019-06-01T17:48:36.997Z,5.30
2019-06-01T17:51:24.574Z,7.03
2019-06-01T17:54:12.156Z,3.07
2019-06-01T17:57:00.952Z,3.10
2019-06-01T17:59:48.731Z,3.17
2019-06-01T18:02:36.259Z,3.27
2019-06-01T18:05:23.804Z,3.90
2019-06-01T18:08:12.617Z,3.13
2019-06-01T18:11:01.860Z,3.57
2019-06-01T18:13:49.778Z,2.87
2019-06-01T18:16:37.322Z,3.13
2019-06-01T18:19:24.871Z,5.50
2019-06-01T18:22:12.933Z,4.63
2019-06-01T18:25:00.646Z,3.50
2019-06-01T18:27:48.244Z,5.07
2019-06-01T18:30:35.862Z,4.10
2019-06-01T18:33:23.534Z,4.77
2019-06-01T18:36:11.637Z,5.13
2019-06-01T18:38:59.345Z,5.63
2019-06-01T18:41:47.048Z,8.73
2019-06-01T18:44:34.608Z,9.63
2019-06-01T18:47:31.842Z,5.47
2019-06-01T18:50:15.530Z,7.67
2019-06-01T18:53:00.844Z,5.27
2019-06-01T18:55:48.519Z,6.90
2019-06-01T18:58:36.081Z,7.73
2019-06-01T19:01:23.630Z,4.60
2019-06-01T19:04:11.822Z,5.23
2019-06-01T19:06:59.627Z,8.53
2019-06-01T19:09:47.186Z,4.97
2019-06-01T19:12:34.728Z,5.80
2019-06-01T19:15:28.571Z,5.50
2019-06-01T19:18:12.649Z,6.50
2019-06-01T19:21:00.560Z,6.17
2019-06-01T19:23:48.120Z,6.13
2019-06-01T19:26:35.688Z,4.80
2019-06-01T19:29:23.244Z,6.63
2019-06-01T19:32:10.985Z,5.27
2019-06-01T19:34:58.569Z,8.50
2019-06-01T19:37:46.793Z,18.97
2019-06-01T19:40:36.429Z,12.80
2019-06-01T19:43:24.030Z,8.07
2019-06-01T19:46:11.791Z,5.67
2019-06-01T19:48:59.361Z,5.80
2019-06-01T19:51:46.921Z,6.83
2019-06-01T19:54:34.570Z,5.90
2019-06-01T19:57:23.889Z,8.93
2019-06-01T20:00:12.055Z,6.97
2019-06-01T20:02:59.753Z,5.50
2019-06-01T20:05:47.326Z,7.57
2019-06-01T20:08:34.918Z,7.03
2019-06-01T20:11:22.542Z,5.57
2019-06-01T20:14:10.255Z,6.60
2019-06-01T20:16:57.777Z,7.53
2019-06-01T20:19:45.349Z,6.70
2019-06-01T20:22:32.907Z,5.80
2019-06-01T20:25:21.416Z,16.70
2019-06-01T20:28:09.502Z,7.43
2019-06-01T20:30:57.037Z,6.30
2019-06-01T20:33:44.669Z,8.33
2019-06-01T20:36:32.229Z,11.10
2019-06-01T20:39:20.274Z,8.03
2019-06-01T20:42:20.695Z,7.20
2019-06-01T20:44:57.840Z,8.40
2019-06-01T20:47:36.015Z,8.07
2019-06-01T20:50:23.647Z,9.33
2019-06-01T20:53:11.186Z,12.23
2019-06-01T20:55:59.130Z,8.90
2019-06-01T20:58:46.687Z,11.80
2019-06-01T21:01:34.292Z,23.10
2019-06-01T21:04:22.341Z,11.07
2019-06-01T21:07:09.995Z,7.80
2019-06-01T21:09:57.571Z,11.50
2019-06-01T21:12:46.054Z,10.77
2019-06-01T21:15:34.057Z,8.13
2019-06-01T21:18:22.679Z,8.00
2019-06-01T21:21:10.479Z,10.83
2019-06-01T21:23:58.115Z,14.43
2019-06-01T21:26:45.667Z,11.83
2019-06-01T21:29:33.289Z,12.80
2019-06-01T21:32:21.319Z,11.30
2019-06-01T21:35:09.195Z,11.30
2019-06-01T21:37:56.763Z,8.90
2019-06-01T21:40:44.321Z,8.87
2019-06-01T21:43:35.184Z,13.67
2019-06-01T21:46:21.715Z,11.97
2019-06-01T21:49:09.362Z,19.63
2019-06-01T21:51:56.992Z,11.57
2019-06-01T21:54:44.544Z,11.13
2019-06-01T21:57:32.172Z,12.13
2019-06-01T22:00:38.040Z,11.90
2019-06-01T22:03:25.717Z,15.63
2019-06-01T22:06:15.259Z,10.53
2019-06-01T22:09:06.383Z,12.13
2019-06-01T22:11:55.683Z,15.33
2019-06-01T22:14:43.364Z,14.93
2019-06-01T22:17:31.027Z,12.80
2019-06-01T22:20:19.867Z,15.90
2019-06-01T22:23:12.001Z,16.40
2019-06-01T22:26:00.129Z,13.27
2019-06-01T22:28:47.774Z,14.10
2019-06-01T22:31:35.369Z,15.80
2019-06-01T22:34:22.905Z,13.50
2019-06-01T22:37:10.467Z,14.87
2019-06-01T22:39:58.028Z,11.70
2019-06-01T22:42:45.611Z,14.20
2019-06-01T22:45:33.502Z,14.00
2019-06-01T22:48:22.406Z,16.87
2019-06-01T22:51:10.516Z,19.80
2019-06-01T22:53:58.086Z,14.33
2019-06-01T22:56:45.646Z,14.93
2019-06-01T22:59:33.231Z,14.90
2019-06-01T23:02:21.565Z,18.00
2019-06-01T23:05:10.010Z,11.67
2019-06-01T23:07:57.610Z,16.73
2019-06-01T23:10:45.241Z,15.80
2019-06-01T23:13:32.871Z,12.07
2019-06-01T23:16:21.578Z,10.23
2019-06-01T23:19:09.324Z,13.40
2019-06-01T23:21:56.941Z,11.07
2019-06-01T23:24:44.473Z,11.27
2019-06-01T23:27:32.600Z,13.60
2019-06-01T23:30:20.235Z,14.60
2019-06-01T23:33:07.794Z,17.07
2019-06-01T23:35:55.342Z,9.40
2019-06-01T23:38:42.903Z,13.93
2019-06-01T23:41:30.825Z,10.57
2019-06-01T23:44:18.543Z,10.60
2019-06-01T23:47:06.134Z,11.10
2019-06-01T23:49:53.667Z,11.27
2019-06-01T23:52:41.285Z,12.27
2019-06-01T23:55:29.881Z,11.00
2019-06-01T23:58:17.556Z,12.53
